sensor_id;sensor_type;location;lat;lon;timestamp;temperature;humidity
12384;DHT22;6256;63.808;20.336;2023-07-13T00:02:06;14.80;99.90
12384;DHT22;6256;63.808;20.336;2023-07-13T00:04:32;14.80;99.90
12384;DHT22;6256;63.808;20.336;2023-07-13T00:06:58;14.90;99.90
12384;DHT22;6256;63.808;20.336;2023-07-13T00:09:24;15.00;99.90
12384;DHT22;6256;63.808;20.336;2023-07-13T00:11:52;15.10;99.90
12384;DHT22;6256;63.808;20.336;2023-07-13T00:14:18;15.10;99.90
12384;DHT22;6256;63.808;20.336;2023-07-13T00:16:44;15.10;99.90
12384;DHT22;6256;63.808;20.336;2023-07-13T00:19:12;15.10;99.90
12384;DHT22;6256;63.808;20.336;2023-07-13T00:21:39;15.10;99.90
12384;DHT22;6256;63.808;20.336;2023-07-13T00:24:06;15.10;99.90
12384;DHT22;6256;63.808;20.336;2023-07-13T00:26:32;15.10;99.90
12384;DHT22;6256;63.808;20.336;2023-07-13T00:28:59;15.10;99.90
12384;DHT22;6256;63.808;20.336;2023-07-13T00:31:25;15.10;99.90
12384;DHT22;6256;63.808;20.336;2023-07-13T00:33:51;15.10;99.90
12384;DHT22;6256;63.808;20.336;2023-07-13T00:36:17;15.20;99.90
12384;DHT22;6256;63.808;20.336;2023-07-13T00:38:43;15.20;99.90
12384;DHT22;6256;63.808;20.336;2023-07-13T00:41:09;15.20;99.90
12384;DHT22;6256;63.808;20.336;2023-07-13T00:43:35;15.30;99.90
12384;DHT22;6256;63.808;20.336;2023-07-13T00:48:34;15.40;99.90
12384;DHT22;6256;63.808;20.336;2023-07-13T00:51:00;15.40;99.90
12384;DHT22;6256;63.808;20.336;2023-07-13T00:53:28;15.50;99.90
12384;DHT22;6256;63.808;20.336;2023-07-13T00:55:55;15.50;99.90
12384;DHT22;6256;63.808;20.336;2023-07-13T00:58:22;15.50;99.90
12384;DHT22;6256;63.808;20.336;2023-07-13T01:00:49;15.50;99.90
12384;DHT22;6256;63.808;20.336;2023-07-13T01:03:16;15.50;99.90
12384;DHT22;6256;63.808;20.336;2023-07-13T01:05:42;15.50;99.90
12384;DHT22;6256;63.808;20.336;2023-07-13T01:08:08;15.60;99.90
12384;DHT22;6256;63.808;20.336;2023-07-13T01:10:34;15.50;99.90
12384;DHT22;6256;63.808;20.336;2023-07-13T01:13:05;15.50;99.90
12384;DHT22;6256;63.808;20.336;2023-07-13T01:15:44;15.50;99.90
12384;DHT22;6256;63.808;20.336;2023-07-13T01:18:15;15.50;99.90
12384;DHT22;6256;63.808;20.336;2023-07-13T01:20:58;15.50;99.90
12384;DHT22;6256;63.808;20.336;2023-07-13T01:23:25;15.40;99.90
12384;DHT22;6256;63.808;20.336;2023-07-13T01:25:52;15.40;99.90
12384;DHT22;6256;63.808;20.336;2023-07-13T01:28:19;15.40;99.90
12384;DHT22;6256;63.808;20.336;2023-07-13T01:30:45;15.30;99.90
12384;DHT22;6256;63.808;20.336;2023-07-13T01:33:13;15.30;99.90
12384;DHT22;6256;63.808;20.336;2023-07-13T01:35:40;15.30;99.90
12384;DHT22;6256;63.808;20.336;2023-07-13T01:38:05;15.30;99.90
12384;DHT22;6256;63.808;20.336;2023-07-13T01:40:34;15.20;99.90
12384;DHT22;6256;63.808;20.336;2023-07-13T01:43:00;15.20;99.90
12384;DHT22;6256;63.808;20.336;2023-07-13T01:45:26;15.20;99.90
12384;DHT22;6256;63.808;20.336;2023-07-13T01:47:52;15.10;99.90
12384;DHT22;6256;63.808;20.336;2023-07-13T01:50:18;15.10;99.90
12384;DHT22;6256;63.808;20.336;2023-07-13T01:52:44;15.10;99.90
12384;DHT22;6256;63.808;20.336;2023-07-13T01:55:09;15.10;99.90
12384;DHT22;6256;63.808;20.336;2023-07-13T01:57:35;15.10;99.90
12384;DHT22;6256;63.808;20.336;2023-07-13T02:00:04;15.10;99.90
12384;DHT22;6256;63.808;20.336;2023-07-13T02:02:30;15.10;99.90
12384;DHT22;6256;63.808;20.336;2023-07-13T02:04:56;15.10;99.90
12384;DHT22;6256;63.808;20.336;2023-07-13T02:07:22;15.00;99.90
12384;DHT22;6256;63.808;20.336;2023-07-13T02:09:48;15.10;99.90
12384;DHT22;6256;63.808;20.336;2023-07-13T02:12:13;15.10;99.90
12384;DHT22;6256;63.808;20.336;2023-07-13T02:14:39;15.10;99.90
12384;DHT22;6256;63.808;20.336;2023-07-13T02:17:05;15.10;99.90
12384;DHT22;6256;63.808;20.336;2023-07-13T02:19:31;15.10;99.90
12384;DHT22;6256;63.808;20.336;2023-07-13T02:21:57;15.20;99.90
12384;DHT22;6256;63.808;20.336;2023-07-13T02:24:23;15.20;99.90
12384;DHT22;6256;63.808;20.336;2023-07-13T02:26:48;15.20;99.90
12384;DHT22;6256;63.808;20.336;2023-07-13T02:29:14;15.20;99.90
12384;DHT22;6256;63.808;20.336;2023-07-13T02:31:40;15.30;99.90
12384;DHT22;6256;63.808;20.336;2023-07-13T02:34:05;15.20;99.90
12384;DHT22;6256;63.808;20.336;2023-07-13T02:36:32;15.20;99.90
12384;DHT22;6256;63.808;20.336;2023-07-13T02:39:01;15.30;99.90
12384;DHT22;6256;63.808;20.336;2023-07-13T02:41:27;15.30;99.90
12384;DHT22;6256;63.808;20.336;2023-07-13T02:43:53;15.30;99.90
12384;DHT22;6256;63.808;20.336;2023-07-13T02:46:18;15.30;99.90
12384;DHT22;6256;63.808;20.336;2023-07-13T02:48:45;15.30;99.90
12384;DHT22;6256;63.808;20.336;2023-07-13T02:51:11;15.30;99.90
12384;DHT22;6256;63.808;20.336;2023-07-13T02:53:37;15.40;99.90
12384;DHT22;6256;63.808;20.336;2023-07-13T02:56:04;15.40;99.90
12384;DHT22;6256;63.808;20.336;2023-07-13T02:58:30;15.40;99.90
12384;DHT22;6256;63.808;20.336;2023-07-13T03:00:56;15.40;99.90
12384;DHT22;6256;63.808;20.336;2023-07-13T03:03:23;15.40;99.90
12384;DHT22;6256;63.808;20.336;2023-07-13T03:05:58;15.40;99.90
12384;DHT22;6256;63.808;20.336;2023-07-13T03:08:25;15.50;99.90
12384;DHT22;6256;63.808;20.336;2023-07-13T03:11:02;15.50;99.90
12384;DHT22;6256;63.808;20.336;2023-07-13T03:13:29;15.50;99.90
12384;DHT22;6256;63.808;20.336;2023-07-13T03:15:54;15.60;99.90
12384;DHT22;6256;63.808;20.336;2023-07-13T03:18:20;15.60;99.90
12384;DHT22;6256;63.808;20.336;2023-07-13T03:20:46;15.70;99.90
12384;DHT22;6256;63.808;20.336;2023-07-13T03:23:11;15.70;99.90
12384;DHT22;6256;63.808;20.336;2023-07-13T03:25:37;15.70;99.90
12384;DHT22;6256;63.808;20.336;2023-07-13T03:28:03;15.70;99.90
12384;DHT22;6256;63.808;20.336;2023-07-13T03:30:31;15.80;99.90
12384;DHT22;6256;63.808;20.336;2023-07-13T03:32:56;15.80;99.90
12384;DHT22;6256;63.808;20.336;2023-07-13T03:35:22;15.90;99.90
12384;DHT22;6256;63.808;20.336;2023-07-13T03:37:48;15.90;99.90
12384;DHT22;6256;63.808;20.336;2023-07-13T03:40:13;16.00;99.90
12384;DHT22;6256;63.808;20.336;2023-07-13T03:42:39;16.00;99.90
12384;DHT22;6256;63.808;20.336;2023-07-13T03:45:05;16.00;99.90
12384;DHT22;6256;63.808;20.336;2023-07-13T03:47:31;16.10;99.90
12384;DHT22;6256;63.808;20.336;2023-07-13T03:49:57;16.20;99.90
12384;DHT22;6256;63.808;20.336;2023-07-13T03:52:23;16.20;99.90
12384;DHT22;6256;63.808;20.336;2023-07-13T03:54:48;16.20;99.90
12384;DHT22;6256;63.808;20.336;2023-07-13T03:57:14;16.30;99.90
12384;DHT22;6256;63.808;20.336;2023-07-13T03:59:40;16.40;99.90
12384;DHT22;6256;63.808;20.336;2023-07-13T04:02:05;16.40;99.90
12384;DHT22;6256;63.808;20.336;2023-07-13T04:04:31;16.50;99.90
12384;DHT22;6256;63.808;20.336;2023-07-13T04:06:57;16.50;99.90
12384;DHT22;6256;63.808;20.336;2023-07-13T04:09:24;16.60;99.90
12384;DHT22;6256;63.808;20.336;2023-07-13T04:11:50;16.70;99.90
12384;DHT22;6256;63.808;20.336;2023-07-13T04:14:16;16.70;99.90
12384;DHT22;6256;63.808;20.336;2023-07-13T04:16:42;16.80;99.90
12384;DHT22;6256;63.808;20.336;2023-07-13T04:19:09;16.80;99.90
12384;DHT22;6256;63.808;20.336;2023-07-13T04:21:36;16.90;99.90
12384;DHT22;6256;63.808;20.336;2023-07-13T04:24:02;17.00;99.90
12384;DHT22;6256;63.808;20.336;2023-07-13T04:26:29;17.00;99.90
12384;DHT22;6256;63.808;20.336;2023-07-13T04:28:56;17.10;99.90
12384;DHT22;6256;63.808;20.336;2023-07-13T04:31:22;17.10;99.90
12384;DHT22;6256;63.808;20.336;2023-07-13T04:33:48;17.20;99.90
12384;DHT22;6256;63.808;20.336;2023-07-13T04:36:15;17.30;99.90
12384;DHT22;6256;63.808;20.336;2023-07-13T04:38:41;17.30;99.90
12384;DHT22;6256;63.808;20.336;2023-07-13T04:41:08;17.40;99.90
12384;DHT22;6256;63.808;20.336;2023-07-13T04:43:34;17.40;99.90
12384;DHT22;6256;63.808;20.336;2023-07-13T04:46:14;17.50;99.90
12384;DHT22;6256;63.808;20.336;2023-07-13T04:48:41;17.60;99.90
12384;DHT22;6256;63.808;20.336;2023-07-13T04:51:07;17.70;99.90
12384;DHT22;6256;63.808;20.336;2023-07-13T04:53:33;17.80;99.90
12384;DHT22;6256;63.808;20.336;2023-07-13T04:56:00;17.80;99.90
12384;DHT22;6256;63.808;20.336;2023-07-13T04:58:26;17.90;99.90
12384;DHT22;6256;63.808;20.336;2023-07-13T05:00:51;17.90;99.90
12384;DHT22;6256;63.808;20.336;2023-07-13T05:03:17;18.00;99.90
12384;DHT22;6256;63.808;20.336;2023-07-13T05:05:43;18.10;99.90
12384;DHT22;6256;63.808;20.336;2023-07-13T05:08:09;18.10;99.90
12384;DHT22;6256;63.808;20.336;2023-07-13T05:10:35;18.20;99.90
12384;DHT22;6256;63.808;20.336;2023-07-13T05:13:01;18.20;99.90
12384;DHT22;6256;63.808;20.336;2023-07-13T05:15:26;18.30;99.90
12384;DHT22;6256;63.808;20.336;2023-07-13T05:17:52;18.40;99.90
12384;DHT22;6256;63.808;20.336;2023-07-13T05:20:18;18.50;99.90
12384;DHT22;6256;63.808;20.336;2023-07-13T05:22:45;18.50;99.90
12384;DHT22;6256;63.808;20.336;2023-07-13T05:25:12;18.60;99.90
12384;DHT22;6256;63.808;20.336;2023-07-13T05:27:39;18.70;99.90
12384;DHT22;6256;63.808;20.336;2023-07-13T05:30:05;18.80;99.90
12384;DHT22;6256;63.808;20.336;2023-07-13T05:32:31;18.90;99.90
12384;DHT22;6256;63.808;20.336;2023-07-13T05:34:56;19.00;99.90
12384;DHT22;6256;63.808;20.336;2023-07-13T05:37:22;19.10;99.90
12384;DHT22;6256;63.808;20.336;2023-07-13T05:39:48;19.20;99.90
12384;DHT22;6256;63.808;20.336;2023-07-13T05:42:13;19.40;99.90
12384;DHT22;6256;63.808;20.336;2023-07-13T05:44:40;19.40;99.90
12384;DHT22;6256;63.808;20.336;2023-07-13T05:47:06;19.50;99.90
12384;DHT22;6256;63.808;20.336;2023-07-13T05:49:31;19.60;99.90
12384;DHT22;6256;63.808;20.336;2023-07-13T05:51:57;19.70;99.90
12384;DHT22;6256;63.808;20.336;2023-07-13T05:54:23;19.80;99.90
12384;DHT22;6256;63.808;20.336;2023-07-13T05:56:49;19.90;99.90
12384;DHT22;6256;63.808;20.336;2023-07-13T05:59:14;19.90;99.90
12384;DHT22;6256;63.808;20.336;2023-07-13T06:01:41;20.10;99.90
12384;DHT22;6256;63.808;20.336;2023-07-13T06:04:07;20.10;99.90
12384;DHT22;6256;63.808;20.336;2023-07-13T06:06:32;20.20;99.90
12384;DHT22;6256;63.808;20.336;2023-07-13T06:08:58;20.30;99.90
12384;DHT22;6256;63.808;20.336;2023-07-13T06:11:25;20.50;99.90
12384;DHT22;6256;63.808;20.336;2023-07-13T06:13:53;20.50;99.90
12384;DHT22;6256;63.808;20.336;2023-07-13T06:16:19;20.60;99.90
12384;DHT22;6256;63.808;20.336;2023-07-13T06:18:45;20.70;99.90
12384;DHT22;6256;63.808;20.336;2023-07-13T06:21:21;20.80;99.90
12384;DHT22;6256;63.808;20.336;2023-07-13T06:23:49;20.80;99.90
12384;DHT22;6256;63.808;20.336;2023-07-13T06:26:16;20.80;99.90
12384;DHT22;6256;63.808;20.336;2023-07-13T06:28:42;20.90;99.90
12384;DHT22;6256;63.808;20.336;2023-07-13T06:31:09;20.90;99.90
12384;DHT22;6256;63.808;20.336;2023-07-13T06:33:36;21.10;99.90
12384;DHT22;6256;63.808;20.336;2023-07-13T06:36:03;21.20;99.90
12384;DHT22;6256;63.808;20.336;2023-07-13T06:38:29;21.20;99.90
12384;DHT22;6256;63.808;20.336;2023-07-13T06:40:55;21.30;99.90
12384;DHT22;6256;63.808;20.336;2023-07-13T06:43:21;21.40;99.90
12384;DHT22;6256;63.808;20.336;2023-07-13T06:45:48;21.60;99.90
12384;DHT22;6256;63.808;20.336;2023-07-13T06:48:15;21.60;99.90
12384;DHT22;6256;63.808;20.336;2023-07-13T06:50:42;21.70;99.90
12384;DHT22;6256;63.808;20.336;2023-07-13T06:53:09;21.80;99.90
12384;DHT22;6256;63.808;20.336;2023-07-13T06:55:35;21.80;99.90
12384;DHT22;6256;63.808;20.336;2023-07-13T06:58:01;21.90;99.90
12384;DHT22;6256;63.808;20.336;2023-07-13T07:00:26;22.00;99.90
12384;DHT22;6256;63.808;20.336;2023-07-13T07:02:52;22.10;99.90
12384;DHT22;6256;63.808;20.336;2023-07-13T07:05:18;22.20;99.90
12384;DHT22;6256;63.808;20.336;2023-07-13T07:07:48;22.20;99.90
12384;DHT22;6256;63.808;20.336;2023-07-13T07:10:14;22.30;99.90
12384;DHT22;6256;63.808;20.336;2023-07-13T07:12:40;22.30;99.90
12384;DHT22;6256;63.808;20.336;2023-07-13T07:15:06;22.40;99.90
12384;DHT22;6256;63.808;20.336;2023-07-13T07:17:32;22.50;99.90
12384;DHT22;6256;63.808;20.336;2023-07-13T07:19:57;22.50;99.90
12384;DHT22;6256;63.808;20.336;2023-07-13T07:22:23;22.60;99.90
12384;DHT22;6256;63.808;20.336;2023-07-13T07:24:52;22.70;99.90
12384;DHT22;6256;63.808;20.336;2023-07-13T07:27:18;22.90;99.90
12384;DHT22;6256;63.808;20.336;2023-07-13T07:29:44;23.00;99.90
12384;DHT22;6256;63.808;20.336;2023-07-13T07:32:10;23.10;99.90
12384;DHT22;6256;63.808;20.336;2023-07-13T07:34:35;22.90;99.90
12384;DHT22;6256;63.808;20.336;2023-07-13T07:37:01;23.00;99.90
12384;DHT22;6256;63.808;20.336;2023-07-13T07:39:27;23.00;99.90
12384;DHT22;6256;63.808;20.336;2023-07-13T07:41:53;23.10;99.90
12384;DHT22;6256;63.808;20.336;2023-07-13T07:44:19;23.10;99.90
12384;DHT22;6256;63.808;20.336;2023-07-13T07:46:44;23.20;99.90
12384;DHT22;6256;63.808;20.336;2023-07-13T07:49:10;23.20;99.90
12384;DHT22;6256;63.808;20.336;2023-07-13T07:51:37;23.20;99.90
12384;DHT22;6256;63.808;20.336;2023-07-13T07:54:04;23.30;99.90
12384;DHT22;6256;63.808;20.336;2023-07-13T07:56:30;23.30;99.90
12384;DHT22;6256;63.808;20.336;2023-07-13T07:58:55;23.30;99.90
12384;DHT22;6256;63.808;20.336;2023-07-13T08:01:22;23.30;99.90
12384;DHT22;6256;63.808;20.336;2023-07-13T08:03:47;23.30;99.90
12384;DHT22;6256;63.808;20.336;2023-07-13T08:06:13;23.40;99.90
12384;DHT22;6256;63.808;20.336;2023-07-13T08:08:39;23.50;99.90
12384;DHT22;6256;63.808;20.336;2023-07-13T08:11:05;23.60;99.90
12384;DHT22;6256;63.808;20.336;2023-07-13T08:13:32;23.70;99.10
12384;DHT22;6256;63.808;20.336;2023-07-13T08:15:58;23.70;99.70
12384;DHT22;6256;63.808;20.336;2023-07-13T08:18:24;23.70;99.40
12384;DHT22;6256;63.808;20.336;2023-07-13T08:20:50;23.80;99.70
12384;DHT22;6256;63.808;20.336;2023-07-13T08:23:15;24.00;99.90
12384;DHT22;6256;63.808;20.336;2023-07-13T08:25:42;24.10;97.50
12384;DHT22;6256;63.808;20.336;2023-07-13T08:28:08;24.20;96.90
12384;DHT22;6256;63.808;20.336;2023-07-13T08:30:34;24.40;96.20
12384;DHT22;6256;63.808;20.336;2023-07-13T08:32:59;24.40;96.10
12384;DHT22;6256;63.808;20.336;2023-07-13T08:35:25;24.50;95.50
12384;DHT22;6256;63.808;20.336;2023-07-13T08:37:51;24.60;94.80
12384;DHT22;6256;63.808;20.336;2023-07-13T08:40:19;24.80;94.70
12384;DHT22;6256;63.808;20.336;2023-07-13T08:42:58;24.90;92.30
12384;DHT22;6256;63.808;20.336;2023-07-13T08:45:33;24.90;94.40
12384;DHT22;6256;63.808;20.336;2023-07-13T08:49:25;25.00;94.50
12384;DHT22;6256;63.808;20.336;2023-07-13T08:54:54;25.20;91.10
12384;DHT22;6256;63.808;20.336;2023-07-13T08:56:55;25.30;92.10
12384;DHT22;6256;63.808;20.336;2023-07-13T08:59:26;25.50;91.70
12384;DHT22;6256;63.808;20.336;2023-07-13T09:02:19;25.50;89.70
12384;DHT22;6256;63.808;20.336;2023-07-13T09:05:00;25.60;88.20
12384;DHT22;6256;63.808;20.336;2023-07-13T09:07:38;25.80;91.20
12384;DHT22;6256;63.808;20.336;2023-07-13T09:18:10;26.20;86.50
12384;DHT22;6256;63.808;20.336;2023-07-13T09:23:14;26.30;79.00
12384;DHT22;6256;63.808;20.336;2023-07-13T09:25:40;26.20;77.20
12384;DHT22;6256;63.808;20.336;2023-07-13T09:28:27;26.30;77.90
12384;DHT22;6256;63.808;20.336;2023-07-13T09:33:35;26.30;73.00
12384;DHT22;6256;63.808;20.336;2023-07-13T09:36:01;26.50;76.20
12384;DHT22;6256;63.808;20.336;2023-07-13T09:38:31;26.50;75.10
12384;DHT22;6256;63.808;20.336;2023-07-13T09:41:40;26.60;77.50
12384;DHT22;6256;63.808;20.336;2023-07-13T09:44:12;26.70;73.10
12384;DHT22;6256;63.808;20.336;2023-07-13T09:46:44;26.70;73.30
12384;DHT22;6256;63.808;20.336;2023-07-13T09:49:11;26.90;71.50
12384;DHT22;6256;63.808;20.336;2023-07-13T09:51:41;27.10;71.20
12384;DHT22;6256;63.808;20.336;2023-07-13T09:54:20;27.10;69.80
12384;DHT22;6256;63.808;20.336;2023-07-13T09:56:46;27.20;71.80
12384;DHT22;6256;63.808;20.336;2023-07-13T09:59:23;27.20;70.90
12384;DHT22;6256;63.808;20.336;2023-07-13T10:01:50;27.20;67.40
12384;DHT22;6256;63.808;20.336;2023-07-13T10:04:22;27.30;69.40
12384;DHT22;6256;63.808;20.336;2023-07-13T10:06:47;27.50;69.00
12384;DHT22;6256;63.808;20.336;2023-07-13T10:09:16;27.60;72.00
12384;DHT22;6256;63.808;20.336;2023-07-13T10:11:42;27.50;68.10
12384;DHT22;6256;63.808;20.336;2023-07-13T10:16:36;27.60;68.30
12384;DHT22;6256;63.808;20.336;2023-07-13T10:19:06;27.60;67.50
12384;DHT22;6256;63.808;20.336;2023-07-13T10:21:41;27.80;69.00
12384;DHT22;6256;63.808;20.336;2023-07-13T10:24:18;28.00;66.10
12384;DHT22;6256;63.808;20.336;2023-07-13T10:27:01;28.10;65.90
12384;DHT22;6256;63.808;20.336;2023-07-13T10:29:34;28.10;69.30
12384;DHT22;6256;63.808;20.336;2023-07-13T10:32:01;28.10;66.60
12384;DHT22;6256;63.808;20.336;2023-07-13T10:34:27;28.20;65.60
12384;DHT22;6256;63.808;20.336;2023-07-13T10:36:53;28.40;65.30
12384;DHT22;6256;63.808;20.336;2023-07-13T10:39:25;28.60;66.20
12384;DHT22;6256;63.808;20.336;2023-07-13T10:42:02;28.70;65.80
12384;DHT22;6256;63.808;20.336;2023-07-13T10:44:32;29.00;67.00
12384;DHT22;6256;63.808;20.336;2023-07-13T10:47:06;29.20;65.70
12384;DHT22;6256;63.808;20.336;2023-07-13T10:49:33;29.20;67.10
12384;DHT22;6256;63.808;20.336;2023-07-13T10:52:01;29.70;67.80
12384;DHT22;6256;63.808;20.336;2023-07-13T10:57:24;30.30;65.20
12384;DHT22;6256;63.808;20.336;2023-07-13T11:02:29;30.60;62.50
12384;DHT22;6256;63.808;20.336;2023-07-13T11:04:56;30.70;64.10
12384;DHT22;6256;63.808;20.336;2023-07-13T11:07:30;31.20;63.90
12384;DHT22;6256;63.808;20.336;2023-07-13T11:10:04;31.40;61.60
12384;DHT22;6256;63.808;20.336;2023-07-13T11:12:52;31.70;59.50
12384;DHT22;6256;63.808;20.336;2023-07-13T11:15:42;31.80;60.60
12384;DHT22;6256;63.808;20.336;2023-07-13T11:18:23;31.20;60.10
12384;DHT22;6256;63.808;20.336;2023-07-13T11:20:50;31.00;60.80
12384;DHT22;6256;63.808;20.336;2023-07-13T11:23:21;30.80;59.80
12384;DHT22;6256;63.808;20.336;2023-07-13T11:25:52;30.10;61.00
12384;DHT22;6256;63.808;20.336;2023-07-13T11:28:22;29.50;63.40
12384;DHT22;6256;63.808;20.336;2023-07-13T11:30:49;29.00;64.60
12384;DHT22;6256;63.808;20.336;2023-07-13T11:36:13;27.90;66.30
12384;DHT22;6256;63.808;20.336;2023-07-13T11:38:41;27.40;68.50
12384;DHT22;6256;63.808;20.336;2023-07-13T11:43:33;27.00;70.80
12384;DHT22;6256;63.808;20.336;2023-07-13T11:46:15;27.10;73.50
12384;DHT22;6256;63.808;20.336;2023-07-13T11:48:42;27.00;73.70
12384;DHT22;6256;63.808;20.336;2023-07-13T11:51:18;27.00;73.80
12384;DHT22;6256;63.808;20.336;2023-07-13T11:53:47;26.60;75.90
12384;DHT22;6256;63.808;20.336;2023-07-13T11:56:14;26.30;75.10
12384;DHT22;6256;63.808;20.336;2023-07-13T11:58:40;26.00;76.40
12384;DHT22;6256;63.808;20.336;2023-07-13T12:01:26;26.00;76.40
12384;DHT22;6256;63.808;20.336;2023-07-13T12:03:54;25.90;77.80
12384;DHT22;6256;63.808;20.336;2023-07-13T12:06:30;26.10;77.20
12384;DHT22;6256;63.808;20.336;2023-07-13T12:09:01;26.50;75.90
12384;DHT22;6256;63.808;20.336;2023-07-13T12:11:29;26.90;74.90
12384;DHT22;6256;63.808;20.336;2023-07-13T12:13:55;27.10;75.90
12384;DHT22;6256;63.808;20.336;2023-07-13T12:16:33;27.20;75.20
12384;DHT22;6256;63.808;20.336;2023-07-13T12:19:00;27.00;77.80
12384;DHT22;6256;63.808;20.336;2023-07-13T12:21:36;26.80;75.70
12384;DHT22;6256;63.808;20.336;2023-07-13T12:24:02;26.50;75.30
12384;DHT22;6256;63.808;20.336;2023-07-13T12:26:30;26.40;75.00
12384;DHT22;6256;63.808;20.336;2023-07-13T12:28:58;26.20;77.10
12384;DHT22;6256;63.808;20.336;2023-07-13T12:31:47;26.20;78.00
12384;DHT22;6256;63.808;20.336;2023-07-13T12:34:18;25.90;79.20
12384;DHT22;6256;63.808;20.336;2023-07-13T12:39:19;25.60;78.40
12384;DHT22;6256;63.808;20.336;2023-07-13T12:41:47;25.40;77.90
12384;DHT22;6256;63.808;20.336;2023-07-13T12:44:16;25.40;79.30
12384;DHT22;6256;63.808;20.336;2023-07-13T12:47:05;25.30;79.70
12384;DHT22;6256;63.808;20.336;2023-07-13T12:49:32;25.30;79.10
12384;DHT22;6256;63.808;20.336;2023-07-13T12:52:02;25.40;79.70
12384;DHT22;6256;63.808;20.336;2023-07-13T12:54:32;25.40;80.40
12384;DHT22;6256;63.808;20.336;2023-07-13T12:56:59;25.40;81.30
12384;DHT22;6256;63.808;20.336;2023-07-13T12:59:29;25.30;80.80
12384;DHT22;6256;63.808;20.336;2023-07-13T13:01:56;25.30;81.00
12384;DHT22;6256;63.808;20.336;2023-07-13T13:04:21;25.40;84.00
12384;DHT22;6256;63.808;20.336;2023-07-13T13:06:48;25.50;82.20
12384;DHT22;6256;63.808;20.336;2023-07-13T13:09:16;25.50;81.40
12384;DHT22;6256;63.808;20.336;2023-07-13T13:11:42;25.30;82.60
12384;DHT22;6256;63.808;20.336;2023-07-13T13:14:08;25.30;83.40
12384;DHT22;6256;63.808;20.336;2023-07-13T13:19:22;25.70;83.10
12384;DHT22;6256;63.808;20.336;2023-07-13T13:21:49;26.40;83.90
12384;DHT22;6256;63.808;20.336;2023-07-13T13:24:20;26.90;83.00
12384;DHT22;6256;63.808;20.336;2023-07-13T13:26:48;27.40;82.30
12384;DHT22;6256;63.808;20.336;2023-07-13T13:29:24;28.10;83.80
12384;DHT22;6256;63.808;20.336;2023-07-13T13:31:50;28.90;81.20
12384;DHT22;6256;63.808;20.336;2023-07-13T13:34:17;30.10;78.00
12384;DHT22;6256;63.808;20.336;2023-07-13T13:36:45;31.60;77.40
12384;DHT22;6256;63.808;20.336;2023-07-13T13:39:33;32.50;73.10
12384;DHT22;6256;63.808;20.336;2023-07-13T13:41:59;33.10;70.80
12384;DHT22;6256;63.808;20.336;2023-07-13T13:44:25;33.20;69.10
12384;DHT22;6256;63.808;20.336;2023-07-13T13:46:53;33.00;69.90
12384;DHT22;6256;63.808;20.336;2023-07-13T13:49:25;33.20;69.90
12384;DHT22;6256;63.808;20.336;2023-07-13T13:51:51;34.00;68.60
12384;DHT22;6256;63.808;20.336;2023-07-13T13:54:18;34.70;67.40
12384;DHT22;6256;63.808;20.336;2023-07-13T13:56:47;34.40;65.80
12384;DHT22;6256;63.808;20.336;2023-07-13T13:59:13;34.40;66.20
12384;DHT22;6256;63.808;20.336;2023-07-13T14:01:41;33.30;66.30
12384;DHT22;6256;63.808;20.336;2023-07-13T14:04:20;32.30;67.80
12384;DHT22;6256;63.808;20.336;2023-07-13T14:06:46;31.80;68.30
12384;DHT22;6256;63.808;20.336;2023-07-13T14:09:16;31.40;70.00
12384;DHT22;6256;63.808;20.336;2023-07-13T14:11:44;31.30;69.10
12384;DHT22;6256;63.808;20.336;2023-07-13T14:14:22;30.60;68.20
12384;DHT22;6256;63.808;20.336;2023-07-13T14:16:49;30.30;69.70
12384;DHT22;6256;63.808;20.336;2023-07-13T14:19:19;30.30;71.40
12384;DHT22;6256;63.808;20.336;2023-07-13T14:21:45;31.00;70.20
12384;DHT22;6256;63.808;20.336;2023-07-13T14:24:13;31.10;69.10
12384;DHT22;6256;63.808;20.336;2023-07-13T14:26:40;30.70;71.10
12384;DHT22;6256;63.808;20.336;2023-07-13T14:29:15;30.10;70.90
12384;DHT22;6256;63.808;20.336;2023-07-13T14:31:42;29.50;72.30
12384;DHT22;6256;63.808;20.336;2023-07-13T14:34:10;28.80;74.50
12384;DHT22;6256;63.808;20.336;2023-07-13T14:36:54;28.30;73.60
12384;DHT22;6256;63.808;20.336;2023-07-13T14:39:22;28.30;75.10
12384;DHT22;6256;63.808;20.336;2023-07-13T14:41:54;28.20;75.60
12384;DHT22;6256;63.808;20.336;2023-07-13T14:44:25;28.20;77.20
12384;DHT22;6256;63.808;20.336;2023-07-13T14:46:51;28.10;80.00
12384;DHT22;6256;63.808;20.336;2023-07-13T14:49:31;28.10;81.80
12384;DHT22;6256;63.808;20.336;2023-07-13T14:52:01;28.00;81.60
12384;DHT22;6256;63.808;20.336;2023-07-13T14:54:27;27.40;82.30
12384;DHT22;6256;63.808;20.336;2023-07-13T14:56:53;27.10;82.50
12384;DHT22;6256;63.808;20.336;2023-07-13T14:59:19;27.10;84.70
12384;DHT22;6256;63.808;20.336;2023-07-13T15:01:46;26.90;83.00
12384;DHT22;6256;63.808;20.336;2023-07-13T15:04:12;26.90;83.00
12384;DHT22;6256;63.808;20.336;2023-07-13T15:06:56;26.80;81.90
12384;DHT22;6256;63.808;20.336;2023-07-13T15:09:22;26.40;93.50
12384;DHT22;6256;63.808;20.336;2023-07-13T15:11:52;26.30;80.80
12384;DHT22;6256;63.808;20.336;2023-07-13T15:14:17;26.10;81.40
12384;DHT22;6256;63.808;20.336;2023-07-13T15:16:44;25.90;80.30
12384;DHT22;6256;63.808;20.336;2023-07-13T15:19:11;25.50;79.60
12384;DHT22;6256;63.808;20.336;2023-07-13T15:21:37;25.20;78.60
12384;DHT22;6256;63.808;20.336;2023-07-13T15:24:03;25.00;78.30
12384;DHT22;6256;63.808;20.336;2023-07-13T15:26:29;24.80;77.80
12384;DHT22;6256;63.808;20.336;2023-07-13T15:28:55;24.80;77.70
12384;DHT22;6256;63.808;20.336;2023-07-13T15:31:25;24.80;78.30
12384;DHT22;6256;63.808;20.336;2023-07-13T15:33:55;24.70;79.00
12384;DHT22;6256;63.808;20.336;2023-07-13T15:36:23;24.70;78.80
12384;DHT22;6256;63.808;20.336;2023-07-13T15:38:54;24.80;79.10
12384;DHT22;6256;63.808;20.336;2023-07-13T15:41:26;24.60;77.80
12384;DHT22;6256;63.808;20.336;2023-07-13T15:43:57;24.40;78.00
12384;DHT22;6256;63.808;20.336;2023-07-13T15:46:27;24.50;79.60
12384;DHT22;6256;63.808;20.336;2023-07-13T15:48:54;24.50;80.40
12384;DHT22;6256;63.808;20.336;2023-07-13T15:51:27;24.20;79.10
12384;DHT22;6256;63.808;20.336;2023-07-13T15:53:59;24.20;82.90
12384;DHT22;6256;63.808;20.336;2023-07-13T15:56:29;24.20;82.00
12384;DHT22;6256;63.808;20.336;2023-07-13T15:58:56;24.20;81.50
12384;DHT22;6256;63.808;20.336;2023-07-13T16:01:23;24.00;80.90
12384;DHT22;6256;63.808;20.336;2023-07-13T16:03:49;24.00;80.80
12384;DHT22;6256;63.808;20.336;2023-07-13T16:06:20;23.80;81.40
12384;DHT22;6256;63.808;20.336;2023-07-13T16:08:49;23.70;81.40
12384;DHT22;6256;63.808;20.336;2023-07-13T16:11:29;23.50;82.50
12384;DHT22;6256;63.808;20.336;2023-07-13T16:13:58;23.30;82.20
12384;DHT22;6256;63.808;20.336;2023-07-13T16:16:27;23.30;82.50